Latest Weather Observations for Cape Sorell

IDT60801

Issued at 8:05 am EST Tuesday 23 September 2014 (issued every 30 minutes, with the page automatically refreshed every 10 minutes)

About weather observations | Map of weather stations | Latest weather observations for TAS | Other Formats
Station Details ID: 097000 Name: CAPE SORELL Lat: -42.20 Lon: 145.17 Height: 19.3 m
Data from the previous 72 hours. | See also: Recent months at Cape Sorell
Date/Time
EST
Temp
°C
App
Temp
°C
Dew
Point
Rel
Hum
%
Delta-T
°C
Wind Press
QNH
hPa
Press
MSL
hPa
Rain
since 9 am
mm
Dir
 
Spd
km/h
Gust
km/h
Spd
kts
Gust
kts
23/08:00am 13.7 8.1 7.0 64 3.2 NNE 26 30 14 16 1024.1 1024.1 0.0
23/07:30am 13.1 7.1 6.9 66 3.0 NNE 28 32 15 17 1023.9 1023.9 0.0
23/07:00am 13.0 6.4 5.9 62 3.3 NNE 30 35 16 19 1023.8 1023.8 0.0
23/06:30am 12.8 6.6 6.2 64 3.1 NNE 28 33 15 18 1023.7 1023.7 0.0
23/06:00am 12.1 7.1 6.6 69 2.6 NNE 22 28 12 15 1023.7 1023.7 0.0
23/05:30am 11.9 6.5 6.2 68 2.7 NNE 24 28 13 15 1023.5 1023.5 0.0
23/05:00am 12.0 7.0 6.3 68 2.7 NNE 22 28 12 15 1023.4 1023.4 0.0
23/04:30am 11.9 6.5 6.4 69 2.6 NNE 24 26 13 14 1023.7 1023.7 0.0
23/04:00am 11.9 6.5 6.2 68 2.7 NNE 24 30 13 16 1023.7 1023.7 0.0
23/03:30am 11.8 6.4 6.3 69 2.6 NNE 24 28 13 15 1023.7 1023.7 0.0
23/03:00am 11.8 6.4 6.5 70 2.5 NNE 24 28 13 15 1024.0 1024.0 0.0
23/02:30am 12.0 7.1 7.1 72 2.4 NNE 22 26 12 14 1024.2 1024.2 0.0
23/02:00am 12.2 6.5 6.5 68 2.7 NNE 26 30 14 16 1024.4 1024.4 0.0
23/01:30am 12.3 6.6 6.8 69 2.6 NNE 26 30 14 16 1024.8 1024.8 0.0
23/01:00am 12.3 6.7 7.2 71 2.4 NNE 26 30 14 16 1025.0 1025.0 0.0
23/12:30am 12.2 7.1 7.7 74 2.2 NNE 24 28 13 15 1025.1 1025.1 0.0
23/12:00am 12.3 7.8 8.4 77 1.9 NNE 22 28 12 15 1025.0 1025.0 0.0
 
Date/Time
EST
Temp
°C
App
Temp
°C
Dew
Point
Rel
Hum
%
Delta-T
°C
Wind Press
QNH
hPa
Press
MSL
hPa
Rain
since 9 am
mm
Dir
 
Spd
km/h
Gust
km/h
Spd
kts
Gust
kts
22/11:30pm 12.1 7.9 8.4 78 1.8 NNE 20 24 11 13 1025.1 1025.1 0.0
22/11:00pm 12.0 8.3 9.4 84 1.3 NNE 19 22 10 12 1025.1 1025.1 0.0
22/10:30pm 12.1 9.3 10.0 87 1.1 NNE 15 19 8 10 1025.2 1025.2 0.0
22/10:00pm 12.3 9.5 9.9 85 1.2 NNE 15 17 8 9 1025.4 1025.4 0.0
22/09:30pm 13.0 9.0 10.4 84 1.3 N 22 26 12 14 1025.4 1025.4 0.0
22/09:00pm 13.2 8.8 10.4 83 1.4 N 24 30 13 16 1025.5 1025.5 0.0
22/08:30pm 13.3 8.3 9.7 79 1.8 N 26 33 14 18 1025.4 1025.4 0.0
22/08:00pm 13.1 8.5 9.5 79 1.8 NNW 24 32 13 17 1025.5 1025.5 0.0
22/07:30pm 13.0 8.3 9.3 78 1.9 NNW 24 32 13 17 1025.2 1025.2 0.0
22/07:00pm 13.0 8.3 9.3 78 1.9 NNW 24 32 13 17 1024.9 1024.9 0.0
22/06:30pm 12.7 9.2 8.8 77 2.0 NW 17 22 9 12 1025.2 1025.2 0.0
22/06:00pm 13.0 8.7 9.3 78 1.9 NNW 22 30 12 16 1024.7 1024.7 0.0
22/05:30pm 13.2 9.3 9.6 79 1.8 NNW 20 32 11 17 1024.5 1024.5 0.0
22/05:00pm 13.4 8.4 9.5 77 2.0 NNW 26 37 14 20 1024.1 1024.1 0.0
22/04:30pm 13.9 8.9 9.7 76 2.2 NNW 26 35 14 19 1024.2 1024.2 0.0
22/04:00pm 14.0 8.6 9.4 74 2.3 NW 28 35 15 19 1024.2 1024.2 0.0
22/03:30pm 14.5 9.5 9.7 73 2.5 NW 26 32 14 17 1024.6 1024.6 0.0
22/03:00pm 14.7 9.7 9.7 72 2.6 NW 26 33 14 18 1024.8 1024.8 0.0
22/02:30pm 14.8 9.8 9.6 71 2.7 NW 26 32 14 17 1025.2 1025.2 0.0
22/02:00pm 14.9 9.9 9.7 71 2.7 NW 26 32 14 17 1025.6 1025.6 0.0
22/01:30pm 15.1 10.1 9.7 70 2.8 NW 26 33 14 18 1025.8 1025.8 0.0
22/01:00pm 15.3 10.8 9.9 70 2.8 NW 24 33 13 18 1026.2 1026.2 0.0
22/12:30pm 15.3 11.1 9.9 70 2.8 NW 22 32 12 17 1026.4 1026.4 0.0
22/12:00pm 15.0 10.8 9.6 70 2.8 NW 22 32 12 17 1026.4 1026.4 0.0
22/11:30am 14.7 9.8 9.9 73 2.5 NW 26 30 14 16 1026.8 1026.8 0.0
22/11:00am 14.5 8.7 9.5 72 2.6 NNW 30 35 16 19 1027.0 1027.0 0.0
22/10:30am 13.9 9.6 9.5 75 2.3 NNW 22 32 12 17 1027.1 1027.1 0.0
22/10:00am 13.0 7.7 8.5 74 2.2 N 26 33 14 18 1027.1 1027.1 0.0
22/09:30am 12.9 8.0 8.6 75 2.1 N 24 30 13 16 1027.3 1027.3 0.0
22/09:00am 12.6 8.9 10.0 84 1.3 N 20 26 11 14 1027.6 1027.6 0.0
22/08:30am 11.5 9.1 10.1 91 0.7 N 13 19 7 10 1027.7 1027.7 0.0
22/08:00am 9.9 6.9 9.1 95 0.4 NE 15 17 8 9 1027.5 1027.5 0.0
22/07:30am 8.8 6.0 8.4 97 0.2 NE 13 15 7 8 1027.4 1027.4 0.0
22/07:00am 7.6 4.5 7.2 97 0.2 ENE 13 15 7 8 1027.4 1027.4 0.0
22/06:30am 6.8 3.1 6.4 97 0.2 ENE 15 19 8 10 1027.2 1027.2 0.0
22/06:00am 7.3 4.1 6.9 97 0.2 ENE 13 15 7 8 1027.2 1027.2 0.0
22/05:30am 7.7 4.6 7.3 97 0.2 ENE 13 17 7 9 1027.2 1027.2 0.0
22/05:00am 7.5 4.0 7.1 97 0.2 ENE 15 19 8 10 1026.9 1026.9 0.0
22/04:30am 7.5 3.9 6.8 95 0.3 E 15 19 8 10 1026.8 1026.8 0.0
22/04:00am 7.3 3.3 6.6 95 0.3 E 17 20 9 11 1026.6 1026.6 0.0
22/03:30am 7.3 3.6 6.4 94 0.4 E 15 19 8 10 1026.6 1026.6 0.0
22/03:00am 7.2 3.1 6.1 93 0.5 E 17 19 9 10 1027.0 1027.0 0.0
22/02:30am 7.1 3.7 6.0 93 0.5 ENE 13 15 7 8 1027.2 1027.2 0.0
22/02:00am 8.3 5.9 7.2 93 0.5 NE 9 13 5 7 1027.4 1027.4 0.0
22/01:30am 8.2 5.4 7.1 93 0.5 NE 11 15 6 8 1027.5 1027.5 0.0
22/01:00am 7.6 3.9 6.5 93 0.5 ENE 15 17 8 9 1027.8 1027.8 0.0
22/12:30am 8.5 5.4 7.4 93 0.5 NE 13 15 7 8 1028.0 1028.0 0.0
22/12:00am 8.2 5.0 7.0 92 0.6 ENE 13 17 7 9 1028.2 1028.2 0.0
 
Date/Time
EST
Temp
°C
App
Temp
°C
Dew
Point
Rel
Hum
%
Delta-T
°C
Wind Press
QNH
hPa
Press
MSL
hPa
Rain
since 9 am
mm
Dir
 
Spd
km/h
Gust
km/h
Spd
kts
Gust
kts
21/11:30pm 8.8 6.5 7.4 91 0.7 ENE 9 11 5 6 1028.5 1028.5 0.0
21/11:00pm 9.2 6.9 7.6 90 0.8 ENE 9 9 5 5 1028.8 1028.8 0.0
21/10:30pm 10.1 7.7 8.5 90 0.8 ENE 11 13 6 7 1029.1 1029.1 0.0
21/10:00pm 10.3 8.2 8.2 87 1.0 ENE 9 9 5 5 1029.4 1029.4 0.0
21/09:30pm 9.8 8.0 7.2 84 1.2 E 6 6 3 3 1029.6 1029.6 0.0
21/09:00pm 9.9 8.2 7.5 85 1.1 SE 6 9 3 5 1029.6 1029.6 0.0
21/08:30pm 10.7 9.0 8.3 85 1.2 ESE 7 7 4 4 1029.7 1029.7 0.0
21/08:00pm 10.7 9.6 8.3 85 1.2 SE 4 4 2 2 1029.7 1029.7 0.0
21/07:30pm 10.8 9.6 8.0 83 1.4 ESE 4 4 2 2 1029.6 1029.6 0.0
21/07:00pm 11.0 9.4 8.1 82 1.4 E 6 7 3 4 1029.5 1029.5 0.0
21/06:30pm 11.6 10.0 8.1 79 1.7 ESE 6 7 3 4 1029.4 1029.4 0.0
21/06:00pm 12.5 11.0 8.6 77 1.9 S 6 9 3 5 1029.3 1029.3 0.0
21/05:30pm 12.8 11.3 8.5 75 2.1 SW 6 7 3 4 1029.3 1029.3 0.0
21/05:00pm 13.2 12.5 8.5 73 2.3 WNW 2 6 1 3 1029.4 1029.4 0.0
21/04:30pm 13.3 12.1 8.2 71 2.5 W 4 6 2 3 1029.5 1029.5 0.0
21/04:00pm 13.8 12.4 8.8 72 2.5 WNW 6 9 3 5 1029.6 1029.6 0.0
21/03:30pm 13.4 10.7 8.9 74 2.3 WSW 13 17 7 9 1029.6 1029.6 0.0
21/03:00pm 13.0 9.0 8.3 73 2.3 WSW 19 24 10 13 1029.6 1029.6 0.0
21/02:30pm 14.2 13.0 7.9 66 3.1 SW 4 6 2 3 1029.6 1029.6 0.0
21/02:00pm 14.4 12.0 8.8 69 2.8 SSW 11 15 6 8 1029.6 1029.6 0.0
21/01:30pm 14.5 11.8 8.9 69 2.8 SW 13 15 7 8 1029.7 1029.7 0.0
21/01:00pm 14.1 11.3 8.5 69 2.8 SW 13 19 7 10 1029.7 1029.7 0.0
21/12:30pm 14.9 11.3 9.7 71 2.7 SW 19 22 10 12 1029.7 1029.7 0.0
21/12:00pm 14.3 11.2 8.7 69 2.8 SW 15 19 8 10 1030.0 1030.0 0.0
21/11:30am 14.0 10.6 9.2 73 2.4 SW 17 20 9 11 1030.1 1030.1 0.0
21/11:00am 14.3 10.5 8.9 70 2.7 SW 19 22 10 12 1030.1 1030.1 0.0
21/10:30am 13.9 11.4 9.7 76 2.2 SW 13 17 7 9 1030.2 1030.2 0.0
21/10:00am 14.3 10.7 10.5 78 2.0 SW 20 22 11 12 1030.1 1030.1 0.0
21/09:30am 12.8 8.4 9.1 78 1.9 SW 22 26 12 14 1030.1 1030.1 0.0
21/09:00am 12.9 8.2 9.2 78 1.9 SW 24 28 13 15 1029.8 1029.8 0.2
21/08:30am 12.2 6.6 8.9 80 1.7 SW 28 33 15 18 1029.5 1029.5 0.2
21/08:00am 12.1 8.0 10.0 87 1.1 SW 22 24 12 13 1029.3 1029.3 0.2
21/07:30am 11.8 6.9 10.0 89 0.9 SSW 26 30 14 16 1029.1 1029.1 0.2
21/07:00am 11.6 6.4 10.3 92 0.7 SSW 28 33 15 18 1028.7 1028.7 0.2
21/06:30am 11.6 6.1 10.5 93 0.6 SW 30 33 16 18 1028.5 1028.5 0.2
21/06:00am 11.5 6.7 10.4 93 0.6 SW 26 32 14 17 1028.1 1028.1 0.2
21/05:30am 11.1 7.9 10.0 93 0.6 SSW 17 19 9 10 1028.0 1028.0 0.2
21/05:00am 11.5 4.8 9.8 89 0.9 SW 35 46 19 25 1027.6 1027.6 0.2
21/04:55am 11.9 6.6 10.0 88 1.0 SW 28 46 15 25 1027.6 1027.6 0.2
21/04:30am 11.6 7.4 9.7 88 1.0 WSW 22 28 12 15 1027.6 1027.6 0.2
21/04:00am 12.1 6.9 8.9 81 1.6 WSW 26 37 14 20 1027.5 1027.5 0.2
21/03:30am 12.2 7.6 8.1 76 2.0 WSW 22 26 12 14 1027.6 1027.6 0.2
21/03:00am 12.0 7.9 7.7 75 2.1 W 19 26 10 14 1027.7 1027.7 0.2
21/02:30am 12.0 7.2 7.5 74 2.2 WSW 22 28 12 15 1028.0 1028.0 0.2
21/02:00am 11.9 7.5 7.4 74 2.2 WSW 20 26 11 14 1028.3 1028.3 0.2
21/01:30am 12.0 6.8 7.3 73 2.3 WSW 24 30 13 16 1028.4 1028.4 0.2
21/01:00am 11.9 7.4 6.8 71 2.4 WSW 20 26 11 14 1028.5 1028.5 0.2
21/12:30am 11.4 6.9 5.9 69 2.6 WSW 19 22 10 12 1028.2 1028.2 0.2
21/12:00am 11.8 8.3 7.3 74 2.2 W 15 19 8 10 1028.3 1028.3 0.2
 
Date/Time
EST
Temp
°C
App
Temp
°C
Dew
Point
Rel
Hum
%
Delta-T
°C
Wind Press
QNH
hPa
Press
MSL
hPa
Rain
since 9 am
mm
Dir
 
Spd
km/h
Gust
km/h
Spd
kts
Gust
kts
20/11:30pm 11.8 7.3 7.1 73 2.3 WSW 20 26 11 14 1028.4 1028.4 0.2
20/11:00pm 11.9 6.6 7.0 72 2.3 WSW 24 30 13 16 1028.6 1028.6 0.2
20/10:30pm 11.9 6.6 6.8 71 2.4 WSW 24 35 13 19 1028.5 1028.5 0.2
20/10:00pm 12.0 7.1 6.7 70 2.5 WSW 22 26 12 14 1028.7 1028.7 0.2
20/09:30pm 12.0 6.3 6.5 69 2.6 WSW 26 30 14 16 1028.8 1028.8 0.2
20/09:00pm 11.9 6.7 5.5 65 2.9 WSW 22 28 12 15 1028.9 1028.9 0.2
20/08:30pm 11.9 6.8 5.8 66 2.8 WSW 22 30 12 16 1028.6 1028.6 0.2
20/08:00pm 11.7 7.6 6.4 70 2.5 SW 17 26 9 14 1028.5 1028.5 0.2
20/07:30pm 11.7 6.5 5.6 66 2.8 WSW 22 26 12 14 1028.3 1028.3 0.2
20/07:00pm 11.8 6.3 5.9 67 2.7 WSW 24 30 13 16 1027.9 1027.9 0.2
20/06:30pm 11.5 7.2 7.2 75 2.1 WSW 19 22 10 12 1027.6 1027.6 0.2
20/06:00pm 10.9 8.3 7.6 80 1.6 WSW 11 15 6 8 1027.5 1027.5 0.2
20/05:30pm 11.2 8.9 7.3 77 1.9 WSW 9 13 5 7 1027.2 1027.2 0.2
20/05:00pm 11.7 8.9 8.4 80 1.6 WSW 13 17 7 9 1027.3 1027.3 0.0
20/04:30pm 11.3 5.8 7.4 77 1.9 WSW 26 37 14 20 1027.2 1027.2 0.0
20/04:00pm 12.2 7.3 6.9 70 2.5 SW 22 28 12 15 1027.2 1027.2 0.0
20/03:30pm 12.6 7.5 7.5 71 2.5 SW 24 28 13 15 1026.9 1026.9 0.0
20/03:00pm 12.0 6.7 6.7 70 2.5 SW 24 30 13 16 1026.9 1026.9 0.0
20/02:30pm 12.2 7.0 7.1 71 2.5 WSW 24 32 13 17 1026.9 1026.9 0.0
20/02:00pm 12.1 8.0 8.0 76 2.0 SSW 19 22 10 12 1026.9 1026.9 0.0
20/01:30pm 12.3 7.4 7.0 70 2.5 WSW 22 28 12 15 1026.7 1026.7 0.0
20/01:00pm 12.1 7.8 7.8 75 2.1 SW 20 24 11 13 1026.9 1026.9 0.0
20/12:30pm 10.7 3.8 7.2 79 1.7 SW 33 37 18 20 1026.9 1026.9 0.0
20/12:00pm 11.9 7.2 7.6 75 2.1 SW 22 32 12 17 1027.0 1027.0 0.0
20/11:30am 11.6 8.1 8.8 83 1.4 SW 17 32 9 17 1026.8 1026.8 0.0
20/11:00am 10.7 5.5 7.4 80 1.6 SW 24 32 13 17 1026.9 1026.9 0.0
20/10:30am 12.1 8.0 8.0 76 2.0 SSW 19 24 10 13 1026.6 1026.6 0.0
20/10:00am 11.6 5.8 7.9 78 1.8 SSW 28 33 15 18 1026.5 1026.5 0.0
20/09:30am 11.3 7.9 7.8 79 1.7 SW 15 20 8 11 1026.5 1026.5 0.0
20/09:00am 11.4 5.8 7.3 76 2.0 SW 26 39 14 21 1026.1 1026.1 1.6
20/08:30am 11.0 5.9 7.5 79 1.7 SW 24 32 13 17 1026.1 1026.1 1.6

Other Formats:

Comma delimited format used in spreadsheet applications
http://www.bom.gov.au/fwo/IDT60801/IDT60801.94974.axf

JavaScript Object Notation format (JSON) in row-major order
http://www.bom.gov.au/fwo/IDT60801/IDT60801.94974.json